createdAt,value
2018-03-30T00:02:24.499Z,4.40
2018-03-30T00:04:53.059Z,3.27
2018-03-30T00:07:20.876Z,4.53
2018-03-30T00:09:56.340Z,4.20
2018-03-30T00:12:24.822Z,4.00
2018-03-30T00:14:53.357Z,6.65
2018-03-30T00:17:20.972Z,4.30
2018-03-30T00:19:48.992Z,4.57
2018-03-30T00:22:16.398Z,5.62
2018-03-30T00:24:43.800Z,4.03
2018-03-30T00:27:11.207Z,4.30
2018-03-30T00:29:38.589Z,3.80
2018-03-30T00:32:05.972Z,4.40
2018-03-30T00:34:33.586Z,5.45
2018-03-30T00:37:01.197Z,3.80
2018-03-30T00:39:28.639Z,4.20
2018-03-30T00:41:56.043Z,3.80
2018-03-30T00:44:23.444Z,3.57
2018-03-30T00:46:50.864Z,3.20
2018-03-30T00:49:19.142Z,4.10
2018-03-30T00:51:46.546Z,3.05
2018-03-30T00:54:13.941Z,3.43
2018-03-30T00:56:41.340Z,5.20
2018-03-30T00:59:08.766Z,4.07
2018-03-30T01:01:36.203Z,5.50
2018-03-30T01:04:03.623Z,3.63
2018-03-30T01:06:31.018Z,4.50
2018-03-30T01:08:58.407Z,4.20
2018-03-30T01:11:26.222Z,3.90
2018-03-30T01:13:54.633Z,4.05
2018-03-30T01:16:22.029Z,3.90
2018-03-30T01:18:49.429Z,3.50
2018-03-30T01:21:16.833Z,3.97
2018-03-30T01:23:44.901Z,3.50
2018-03-30T01:26:12.310Z,4.90
2018-03-30T01:28:39.694Z,3.30
2018-03-30T01:31:07.122Z,3.63
2018-03-30T01:33:34.954Z,4.40
2018-03-30T01:36:02.342Z,2.87
2018-03-30T01:38:29.773Z,3.33
2018-03-30T01:40:58.279Z,2.60
2018-03-30T01:43:25.666Z,3.55
2018-03-30T01:45:53.081Z,3.20
2018-03-30T01:48:20.466Z,3.70
2018-03-30T01:50:47.859Z,3.60
2018-03-30T01:53:15.298Z,4.03
2018-03-30T01:55:42.755Z,4.57
2018-03-30T01:58:10.497Z,2.90
2018-03-30T02:00:37.889Z,3.30
2018-03-30T02:03:05.293Z,3.40
2018-03-30T02:05:32.666Z,4.30
2018-03-30T02:08:00.252Z,6.20
2018-03-30T02:10:27.709Z,5.57
2018-03-30T02:12:55.095Z,3.27
2018-03-30T02:15:22.656Z,3.28
2018-03-30T02:17:50.115Z,2.70
2018-03-30T02:20:17.507Z,3.57
2018-03-30T02:22:45.254Z,3.03
2018-03-30T02:25:12.695Z,2.67
2018-03-30T02:27:40.081Z,3.20
2018-03-30T02:30:07.466Z,3.13
2018-03-30T02:32:34.878Z,3.33
2018-03-30T02:35:02.345Z,2.60
2018-03-30T02:37:29.772Z,3.50
2018-03-30T02:39:57.158Z,5.77
2018-03-30T02:42:25.206Z,4.20
2018-03-30T02:44:52.662Z,4.17
2018-03-30T02:47:20.080Z,3.80
2018-03-30T02:49:47.732Z,3.13
2018-03-30T02:52:15.232Z,3.57
2018-03-30T02:54:42.787Z,6.10
2018-03-30T02:57:11.903Z,3.22
2018-03-30T02:59:39.299Z,3.50
2018-03-30T03:02:06.717Z,3.10
2018-03-30T03:04:34.389Z,3.43
2018-03-30T03:07:01.817Z,2.83
2018-03-30T03:09:29.411Z,3.05
2018-03-30T03:11:56.832Z,3.00
2018-03-30T03:14:24.233Z,3.30
2018-03-30T03:16:51.682Z,3.08
2018-03-30T03:19:19.073Z,3.33
2018-03-30T03:21:46.578Z,3.07
2018-03-30T03:24:14.337Z,4.00
2018-03-30T03:26:41.771Z,3.23
2018-03-30T03:29:09.175Z,4.25
2018-03-30T03:31:36.778Z,4.60
2018-03-30T03:34:04.177Z,4.23
2018-03-30T03:36:31.543Z,5.37
2018-03-30T03:38:58.966Z,3.93
2018-03-30T03:41:26.348Z,6.00
2018-03-30T03:43:54.764Z,3.50
2018-03-30T03:46:22.141Z,3.93
2018-03-30T03:48:49.531Z,4.07
2018-03-30T03:51:17.033Z,3.50
2018-03-30T03:53:44.622Z,3.77
2018-03-30T03:56:12.153Z,3.03
2018-03-30T03:58:39.830Z,4.07
2018-03-30T04:01:07.412Z,3.63
2018-03-30T04:03:34.774Z,5.83
2018-03-30T04:06:02.181Z,3.17
2018-03-30T04:08:29.650Z,3.30
2018-03-30T04:10:57.248Z,3.40
2018-03-30T04:13:24.797Z,3.75
2018-03-30T04:15:52.338Z,4.53
2018-03-30T04:18:19.742Z,2.87
2018-03-30T04:20:47.315Z,3.83
2018-03-30T04:23:14.701Z,5.37
2018-03-30T04:25:42.083Z,5.20
2018-03-30T04:28:12.557Z,4.20
2018-03-30T04:30:40.087Z,3.93
2018-03-30T04:33:07.478Z,3.78
2018-03-30T04:35:34.874Z,5.70
2018-03-30T04:38:02.274Z,3.93
2018-03-30T04:40:29.677Z,3.20
2018-03-30T04:42:57.048Z,4.40
2018-03-30T04:45:24.442Z,6.57
2018-03-30T04:47:51.863Z,5.80
2018-03-30T04:50:19.251Z,3.47
2018-03-30T04:52:46.669Z,3.60
2018-03-30T04:55:14.741Z,3.60
2018-03-30T04:57:42.125Z,4.70
2018-03-30T05:00:09.525Z,4.07
2018-03-30T05:02:36.909Z,3.17
2018-03-30T05:05:04.334Z,5.27
2018-03-30T05:07:31.704Z,3.33
2018-03-30T05:09:59.117Z,3.80
2018-03-30T05:12:26.510Z,4.40
2018-03-30T05:14:53.884Z,3.73
2018-03-30T05:17:21.296Z,2.87
2018-03-30T05:19:48.940Z,3.60
2018-03-30T05:22:16.329Z,4.17
2018-03-30T05:24:44.776Z,4.57
2018-03-30T05:27:12.145Z,5.70
2018-03-30T05:29:39.558Z,3.83
2018-03-30T05:32:06.963Z,4.23
2018-03-30T05:34:34.371Z,4.50
2018-03-30T05:37:01.925Z,4.33
2018-03-30T05:39:29.330Z,3.47
2018-03-30T05:41:56.754Z,4.03
2018-03-30T05:44:24.174Z,4.50
2018-03-30T05:46:51.614Z,4.97
2018-03-30T05:49:19.013Z,5.60
2018-03-30T05:51:46.393Z,5.63
2018-03-30T05:54:14.620Z,5.00
2018-03-30T05:56:42.612Z,4.80
2018-03-30T05:59:10.048Z,5.87
2018-03-30T06:01:37.931Z,5.77
2018-03-30T06:04:05.300Z,6.90
2018-03-30T06:06:32.768Z,5.45
2018-03-30T06:09:00.157Z,5.17
2018-03-30T06:11:27.597Z,5.60
2018-03-30T06:13:54.973Z,5.73
2018-03-30T06:16:23.750Z,6.25
2018-03-30T06:18:51.149Z,6.50
2018-03-30T06:21:18.563Z,7.63
2018-03-30T06:23:45.942Z,5.70
2018-03-30T06:26:13.422Z,7.00
2018-03-30T06:28:40.832Z,7.07
2018-03-30T06:31:08.238Z,6.33
2018-03-30T06:33:35.623Z,6.60
2018-03-30T06:36:02.994Z,6.20
2018-03-30T06:38:30.380Z,6.40
2018-03-30T06:40:57.788Z,7.40
2018-03-30T06:43:25.193Z,7.90
2018-03-30T06:45:52.584Z,7.13
2018-03-30T06:48:20.700Z,7.23
2018-03-30T06:50:48.093Z,7.03
2018-03-30T06:53:15.518Z,8.68
2018-03-30T06:55:43.262Z,7.50
2018-03-30T06:58:10.747Z,8.23
2018-03-30T07:00:38.120Z,9.73
2018-03-30T07:03:05.510Z,7.13
2018-03-30T07:05:32.900Z,8.13
2018-03-30T07:08:00.773Z,9.50
2018-03-30T07:10:28.153Z,9.05
2018-03-30T07:12:55.568Z,8.88
2018-03-30T07:15:22.952Z,7.90
2018-03-30T07:17:50.338Z,9.55
2018-03-30T07:20:17.747Z,9.60
2018-03-30T07:22:46.297Z,9.77
2018-03-30T07:25:13.685Z,9.20
2018-03-30T07:27:41.068Z,9.13
2018-03-30T07:30:08.460Z,8.37
2018-03-30T07:32:35.859Z,9.17
2018-03-30T07:35:03.425Z,9.07
2018-03-30T07:37:30.823Z,17.12
2018-03-30T07:39:58.274Z,10.45
2018-03-30T07:42:25.709Z,9.70
2018-03-30T07:44:53.124Z,9.80
2018-03-30T07:47:20.537Z,9.10
2018-03-30T07:49:47.957Z,10.67
2018-03-30T07:52:15.674Z,8.32
2018-03-30T07:54:43.229Z,8.83
2018-03-30T07:57:10.648Z,9.00
2018-03-30T07:59:38.052Z,9.80
2018-03-30T08:02:05.437Z,8.07
2018-03-30T08:04:32.843Z,10.63
2018-03-30T08:07:00.229Z,10.00
2018-03-30T08:09:27.616Z,9.38
2018-03-30T08:11:57.101Z,10.60
2018-03-30T08:14:25.249Z,10.02
2018-03-30T08:16:52.672Z,8.30
2018-03-30T08:19:20.058Z,9.18
2018-03-30T08:21:47.449Z,8.50
2018-03-30T08:24:15.571Z,8.93
2018-03-30T08:26:42.970Z,9.00
2018-03-30T08:29:10.348Z,9.70
2018-03-30T08:31:37.754Z,8.23
2018-03-30T08:34:05.121Z,9.40
2018-03-30T08:36:32.545Z,9.17
2018-03-30T08:39:00.422Z,8.95
2018-03-30T08:41:27.962Z,9.13
2018-03-30T08:43:55.389Z,8.48
2018-03-30T08:46:23.734Z,8.18
2018-03-30T08:48:51.114Z,8.30
2018-03-30T08:51:18.524Z,8.00
2018-03-30T08:53:45.917Z,7.60
2018-03-30T08:56:13.350Z,8.30
2018-03-30T08:58:41.082Z,7.40
2018-03-30T09:01:08.473Z,8.10
2018-03-30T09:03:35.972Z,8.77
2018-03-30T09:06:03.516Z,8.20
2018-03-30T09:08:30.921Z,8.17
2018-03-30T09:10:58.307Z,8.00
2018-03-30T09:13:25.737Z,8.20
2018-03-30T09:15:53.124Z,7.13
2018-03-30T09:18:20.534Z,7.57
2018-03-30T09:20:47.960Z,7.60
2018-03-30T09:23:16.265Z,8.00
2018-03-30T09:25:44.790Z,7.67
2018-03-30T09:28:12.274Z,8.70
2018-03-30T09:30:39.656Z,8.00
2018-03-30T09:33:07.193Z,8.93
2018-03-30T09:35:34.582Z,9.60
2018-03-30T09:38:01.979Z,9.40
2018-03-30T09:40:29.445Z,7.68
2018-03-30T09:42:56.874Z,7.33
2018-03-30T09:45:24.304Z,7.47
2018-03-30T09:47:51.693Z,8.68
2018-03-30T09:50:19.262Z,8.07
2018-03-30T09:52:46.659Z,7.80
2018-03-30T09:55:14.042Z,9.00
2018-03-30T09:57:41.454Z,8.00
2018-03-30T10:00:08.861Z,8.27
2018-03-30T10:02:38.154Z,7.50
2018-03-30T10:05:06.058Z,7.50
2018-03-30T10:07:33.456Z,7.62
2018-03-30T10:10:00.852Z,7.67
2018-03-30T10:12:28.302Z,8.07
2018-03-30T10:14:55.698Z,7.10
2018-03-30T10:17:23.236Z,7.60
2018-03-30T10:20:03.983Z,8.10
2018-03-30T10:22:42.308Z,6.90
2018-03-30T10:25:10.484Z,6.97
2018-03-30T10:27:37.937Z,6.90
2018-03-30T10:30:05.579Z,7.30
2018-03-30T10:32:33.000Z,7.00
2018-03-30T10:35:00.384Z,7.60
2018-03-30T10:37:27.784Z,7.10
2018-03-30T10:39:55.185Z,6.12
2018-03-30T10:42:22.583Z,7.00
2018-03-30T10:44:50.022Z,6.50
2018-03-30T10:47:17.425Z,5.87
2018-03-30T10:49:44.866Z,5.27
2018-03-30T10:52:12.303Z,5.43
2018-03-30T10:54:39.713Z,5.90
2018-03-30T10:57:07.166Z,6.03
2018-03-30T10:59:36.050Z,5.97
2018-03-30T11:02:06.386Z,6.13
2018-03-30T11:04:33.778Z,7.62
2018-03-30T11:07:01.906Z,6.00
2018-03-30T11:09:29.333Z,5.35
2018-03-30T11:11:56.753Z,5.43
2018-03-30T11:14:24.508Z,5.45
2018-03-30T11:16:52.714Z,5.77
2018-03-30T11:19:20.108Z,5.57
2018-03-30T11:21:47.579Z,5.70
2018-03-30T11:24:14.983Z,5.40
2018-03-30T11:26:42.442Z,7.47
2018-03-30T11:29:10.103Z,5.67
2018-03-30T11:31:37.574Z,5.93
2018-03-30T11:34:04.999Z,6.53
2018-03-30T11:36:32.427Z,5.77
2018-03-30T11:38:59.800Z,5.50
2018-03-30T11:41:27.460Z,6.03
2018-03-30T11:43:55.335Z,6.30
2018-03-30T11:46:27.009Z,5.90
2018-03-30T11:48:55.263Z,10.93
2018-03-30T11:51:22.664Z,5.30
2018-03-30T11:53:50.048Z,6.20
2018-03-30T11:56:17.437Z,6.60
2018-03-30T11:58:46.845Z,16.67
2018-03-30T12:01:14.259Z,5.20
2018-03-30T12:03:43.662Z,5.93
2018-03-30T12:06:11.044Z,5.40
2018-03-30T12:08:38.497Z,6.10
2018-03-30T12:11:05.885Z,5.80
2018-03-30T12:13:33.286Z,9.60
2018-03-30T12:16:00.660Z,5.80
2018-03-30T12:18:28.426Z,5.97
2018-03-30T12:20:55.842Z,6.30
2018-03-30T12:23:23.258Z,6.03
2018-03-30T12:25:50.734Z,7.15
2018-03-30T12:28:18.128Z,5.27
2018-03-30T12:30:45.526Z,4.70
2018-03-30T12:33:14.303Z,4.70
2018-03-30T12:35:43.881Z,5.20
2018-03-30T12:38:14.028Z,4.73
2018-03-30T12:40:41.443Z,5.33
2018-03-30T12:43:09.555Z,4.80
2018-03-30T12:45:37.910Z,5.23
2018-03-30T12:48:05.495Z,5.97
2018-03-30T12:50:32.885Z,6.35
2018-03-30T12:53:01.558Z,6.63
2018-03-30T12:55:28.954Z,6.73
2018-03-30T12:57:56.329Z,6.57
2018-03-30T13:00:23.716Z,6.83
2018-03-30T13:02:51.123Z,6.60
2018-03-30T13:05:18.529Z,7.03
2018-03-30T13:07:46.921Z,6.95
2018-03-30T13:10:15.610Z,10.00
2018-03-30T13:12:42.998Z,9.10
2018-03-30T13:15:10.761Z,7.83
2018-03-30T13:17:38.154Z,7.57
2018-03-30T13:20:05.568Z,7.50
2018-03-30T13:22:32.985Z,7.15
2018-03-30T13:25:00.625Z,7.30
2018-03-30T13:27:28.120Z,7.22
2018-03-30T13:29:56.643Z,7.33
2018-03-30T13:32:24.041Z,8.07
2018-03-30T13:34:52.106Z,8.45
2018-03-30T13:37:19.582Z,7.70
2018-03-30T13:39:48.205Z,8.00
2018-03-30T13:42:15.614Z,8.47
2018-03-30T13:44:43.044Z,8.10
2018-03-30T13:47:11.821Z,8.83
2018-03-30T13:49:39.209Z,8.70
2018-03-30T13:52:18.411Z,8.40
2018-03-30T13:54:48.578Z,8.90
2018-03-30T13:57:23.188Z,7.53
2018-03-30T13:59:52.059Z,8.07
2018-03-30T14:02:28.009Z,8.80
2018-03-30T14:05:10.565Z,8.05
2018-03-30T14:21:04.355Z,7.67
2018-03-30T14:23:44.492Z,7.33
2018-03-30T14:26:16.464Z,7.83
2018-03-30T14:28:44.605Z,7.50
2018-03-30T14:31:16.434Z,6.73
2018-03-30T14:33:45.611Z,8.63
2018-03-30T14:36:13.073Z,18.53
2018-03-30T14:52:12.716Z,5.23
2018-03-30T14:54:45.836Z,6.00
2018-03-30T15:11:05.436Z,2.43
2018-03-30T15:13:39.658Z,1.40
2018-03-30T15:16:15.348Z,1.80
2018-03-30T15:18:48.437Z,3.83
2018-03-30T15:21:18.747Z,2.27
2018-03-30T15:23:52.763Z,1.90
2018-03-30T15:26:24.017Z,1.87
2018-03-30T15:29:03.942Z,1.37
2018-03-30T15:31:31.782Z,1.60
2018-03-30T15:34:02.653Z,1.63
2018-03-30T15:36:32.833Z,1.47
2018-03-30T15:39:00.249Z,1.67
2018-03-30T15:41:28.628Z,0.90
2018-03-30T15:43:56.208Z,1.67
2018-03-30T15:46:31.010Z,1.30
2018-03-30T15:48:58.711Z,1.37
2018-03-30T15:51:29.814Z,1.90
2018-03-30T15:53:56.942Z,1.53
2018-03-30T15:56:28.199Z,2.23
2018-03-30T15:58:58.265Z,2.20
2018-03-30T16:01:26.007Z,1.95
2018-03-30T16:03:54.819Z,2.27
2018-03-30T16:06:24.359Z,2.47
2018-03-30T16:08:51.729Z,1.15
2018-03-30T16:11:30.932Z,1.97
2018-03-30T16:13:58.318Z,1.33
2018-03-30T16:16:25.791Z,1.43
2018-03-30T16:18:56.527Z,0.80
2018-03-30T16:21:25.366Z,1.37
2018-03-30T16:23:53.338Z,1.65
2018-03-30T16:26:20.194Z,1.53
2018-03-30T16:28:49.448Z,1.30
2018-03-30T16:31:17.227Z,2.00
2018-03-30T16:33:44.185Z,1.90
2018-03-30T16:36:11.073Z,1.20
2018-03-30T16:38:37.947Z,1.97
2018-03-30T16:41:04.888Z,2.20
2018-03-30T16:43:32.389Z,2.27
2018-03-30T16:46:03.464Z,2.55
2018-03-30T16:48:31.422Z,2.65
2018-03-30T16:50:58.688Z,2.13
2018-03-30T16:53:26.397Z,2.30
2018-03-30T16:55:53.263Z,2.53
2018-03-30T16:58:20.121Z,1.83
2018-03-30T17:00:49.644Z,2.00
2018-03-30T17:03:17.355Z,1.97
2018-03-30T17:05:44.289Z,1.70
2018-03-30T17:08:13.024Z,1.77
2018-03-30T17:10:40.010Z,1.90
2018-03-30T17:13:06.865Z,2.20
2018-03-30T17:15:33.708Z,2.65
2018-03-30T17:18:00.570Z,1.77
2018-03-30T17:20:27.417Z,2.25
2018-03-30T17:22:54.273Z,1.70
2018-03-30T17:25:21.119Z,2.93
2018-03-30T17:27:48.792Z,2.33
2018-03-30T17:30:16.817Z,2.60
2018-03-30T17:32:43.674Z,7.10
2018-03-30T17:35:10.854Z,20.97
2018-03-30T17:37:38.224Z,21.83
2018-03-30T17:40:05.068Z,19.17
2018-03-30T17:42:31.925Z,18.02
2018-03-30T17:44:58.793Z,16.43
2018-03-30T17:47:25.656Z,10.80
2018-03-30T17:49:52.511Z,7.00
2018-03-30T17:52:19.347Z,7.07
2018-03-30T17:54:46.201Z,4.97
2018-03-30T17:57:13.068Z,4.47
2018-03-30T17:59:39.906Z,3.50
2018-03-30T18:02:06.745Z,3.93
2018-03-30T18:04:33.601Z,3.27
2018-03-30T18:07:00.945Z,3.50
2018-03-30T18:09:27.862Z,3.30
2018-03-30T18:11:55.600Z,5.65
2018-03-30T18:14:22.459Z,4.45
2018-03-30T18:16:49.306Z,4.00
2018-03-30T18:19:16.162Z,4.40
2018-03-30T18:21:43.017Z,3.70
2018-03-30T18:24:10.427Z,3.63
2018-03-30T18:26:37.264Z,3.47
2018-03-30T18:29:04.162Z,3.90
2018-03-30T18:31:31.014Z,3.80
2018-03-30T18:33:57.908Z,4.33
2018-03-30T18:36:24.798Z,6.20
2018-03-30T18:38:51.652Z,6.70
2018-03-30T18:41:22.667Z,7.62
2018-03-30T18:46:32.294Z,6.20
2018-03-30T18:48:59.175Z,6.40
2018-03-30T18:51:26.055Z,7.90
2018-03-30T18:53:56.138Z,7.37
2018-03-30T18:56:23.057Z,9.87
2018-03-30T18:58:51.649Z,6.57
2018-03-30T19:01:18.497Z,12.30
2018-03-30T19:03:45.490Z,9.13
2018-03-30T19:06:12.380Z,7.87
2018-03-30T19:08:39.217Z,9.43
2018-03-30T19:11:06.062Z,9.63
2018-03-30T19:13:33.427Z,10.55
2018-03-30T19:16:00.315Z,9.88
2018-03-30T19:18:27.852Z,10.43
2018-03-30T19:20:54.707Z,9.53
2018-03-30T19:23:21.556Z,8.07
2018-03-30T19:25:48.408Z,8.70
2018-03-30T19:28:15.282Z,10.10
2018-03-30T19:30:42.518Z,9.80
2018-03-30T19:33:10.794Z,9.13
2018-03-30T19:35:37.689Z,8.60
2018-03-30T19:38:05.764Z,9.13
2018-03-30T19:40:32.615Z,7.60
2018-03-30T19:42:59.492Z,7.87
2018-03-30T19:45:26.334Z,9.90
2018-03-30T19:47:53.760Z,10.30
2018-03-30T19:50:20.613Z,9.03
2018-03-30T19:52:47.779Z,10.40
2018-03-30T19:55:14.735Z,10.63
2018-03-30T19:57:42.772Z,10.83
2018-03-30T20:00:09.670Z,9.57
2018-03-30T20:02:36.514Z,11.03
2018-03-30T20:05:03.880Z,10.17
2018-03-30T20:07:30.744Z,11.60
2018-03-30T20:09:58.264Z,12.88
2018-03-30T20:12:25.126Z,11.00
2018-03-30T20:14:51.980Z,10.80
2018-03-30T20:17:19.181Z,10.07
2018-03-30T20:19:46.075Z,12.90
2018-03-30T20:22:14.693Z,12.07
2018-03-30T20:24:41.570Z,13.80
2018-03-30T20:27:08.428Z,11.18
2018-03-30T20:32:29.489Z,10.90
2018-03-30T20:34:58.950Z,8.40
2018-03-30T20:37:25.829Z,10.18
2018-03-30T20:39:52.683Z,9.95
2018-03-30T20:42:19.802Z,9.27
2018-03-30T20:44:46.663Z,11.60
2018-03-30T20:47:13.495Z,8.40
2018-03-30T20:49:40.335Z,8.73
2018-03-30T20:52:07.202Z,9.00
2018-03-30T20:54:34.112Z,8.52
2018-03-30T20:57:01.465Z,6.25
2018-03-30T20:59:28.589Z,7.27
2018-03-30T21:01:55.466Z,7.45
2018-03-30T21:04:22.315Z,8.53
2018-03-30T21:06:49.209Z,9.20
2018-03-30T21:09:16.083Z,8.60
2018-03-30T21:11:45.054Z,8.53
2018-03-30T21:14:11.954Z,7.73
2018-03-30T21:16:38.820Z,7.63
2018-03-30T21:19:05.725Z,7.50
2018-03-30T21:21:32.636Z,7.63
2018-03-30T21:23:59.544Z,8.37
2018-03-30T21:26:26.389Z,6.77
2018-03-30T21:28:53.311Z,5.93
2018-03-30T21:31:20.172Z,6.20
2018-03-30T21:33:47.793Z,6.83
2018-03-30T21:36:14.712Z,6.37
2018-03-30T21:38:41.582Z,6.67
2018-03-30T21:41:08.454Z,7.07
2018-03-30T21:43:35.306Z,9.23
2018-03-30T21:46:02.170Z,7.78
2018-03-30T21:48:29.095Z,7.47
2018-03-30T21:50:55.953Z,7.00
2018-03-30T21:53:22.825Z,8.50
2018-03-30T21:55:49.678Z,6.93
2018-03-30T21:58:16.622Z,5.70
2018-03-30T22:00:44.256Z,6.70
2018-03-30T22:03:11.111Z,5.50
2018-03-30T22:05:37.986Z,4.97
2018-03-30T22:08:04.861Z,5.27
2018-03-30T22:10:31.726Z,5.60
2018-03-30T22:12:58.580Z,6.47
2018-03-30T22:15:25.445Z,5.83
2018-03-30T22:17:52.291Z,6.67
2018-03-30T22:20:19.188Z,7.23
2018-03-30T22:22:46.033Z,6.90
2018-03-30T22:25:13.764Z,6.20
2018-03-30T22:27:40.607Z,6.50
2018-03-30T22:30:07.464Z,3.90
2018-03-30T22:32:34.681Z,4.50
2018-03-30T22:35:01.605Z,5.12
2018-03-30T22:37:28.439Z,5.22
2018-03-30T22:39:55.291Z,6.10
2018-03-30T22:42:22.161Z,5.03
2018-03-30T22:44:50.721Z,5.60
2018-03-30T22:47:17.830Z,7.33
2018-03-30T22:49:45.094Z,6.60
2018-03-30T22:52:12.040Z,6.35
2018-03-30T22:54:39.611Z,5.53
2018-03-30T22:57:06.520Z,5.57
2018-03-30T22:59:33.387Z,5.67
2018-03-30T23:02:00.230Z,5.80
2018-03-30T23:04:28.825Z,5.90
2018-03-30T23:06:55.685Z,6.00
2018-03-30T23:09:22.570Z,5.83
2018-03-30T23:11:49.908Z,5.50
2018-03-30T23:14:16.825Z,5.33
2018-03-30T23:16:43.669Z,5.43
2018-03-30T23:19:12.832Z,5.40
2018-03-30T23:21:41.236Z,6.90
2018-03-30T23:24:08.109Z,7.00
2018-03-30T23:26:34.990Z,7.70
2018-03-30T23:29:01.849Z,7.53
2018-03-30T23:31:28.698Z,8.45
2018-03-30T23:33:55.568Z,6.63
2018-03-30T23:36:22.419Z,5.63
2018-03-30T23:38:49.282Z,5.63
2018-03-30T23:41:16.593Z,5.85
2018-03-30T23:43:44.688Z,5.77
2018-03-30T23:46:12.629Z,6.23
2018-03-30T23:48:39.485Z,7.70
2018-03-30T23:51:06.348Z,7.00
2018-03-30T23:53:34.025Z,6.70
2018-03-30T23:56:00.897Z,6.40
2018-03-30T23:58:27.768Z,6.27
